Time;durP1;ratioP1;P1;durP2;ratioP2;P2;SDS_P1;SDS_P2;PMS_P1;PMS_P2;Temp;Humidity;BMP_temperature;BMP_pressure;BME280_temperature;BME280_humidity;BME280_pressure;Samples;Min_cycle;Max_cycle;Signal;HPM_P1;HPM_P2
2021/08/14 00:00:44;;;;;;;34.55;9.40;;;;;;;;;;5041015;28;20123;-69
2021/08/14 00:03:10;;;;;;;40.95;9.93;;;;;;;;;;5041408;28;20049;-69
2021/08/14 00:05:37;;;;;;;33.67;10.00;;;;;;;;;;5034741;28;20057;-69
2021/08/14 00:08:04;;;;;;;30.90;9.75;;;;;;;;;;5035524;28;20038;-68
2021/08/14 00:10:30;;;;;;;32.25;10.20;;;;;;;;;;5036589;28;20495;-69
2021/08/14 00:12:57;;;;;;;41.70;11.05;;;;;;;;;;5032333;28;20361;-69
2021/08/14 00:15:23;;;;;;;43.55;10.90;;;;;;;;;;5037718;28;20048;-69
2021/08/14 00:17:49;;;;;;;36.30;11.05;;;;;;;;;;5036628;28;20045;-69
2021/08/14 00:20:16;;;;;;;35.45;11.70;;;;;;;;;;5035621;28;20042;-69
2021/08/14 00:22:42;;;;;;;28.15;9.63;;;;;;;;;;5034175;28;20123;-69
2021/08/14 00:25:09;;;;;;;35.83;9.95;;;;;;;;;;5026953;28;20152;-69
2021/08/14 00:27:35;;;;;;;37.63;10.40;;;;;;;;;;5028997;28;20060;-69
2021/08/14 00:30:01;;;;;;;37.58;10.85;;;;;;;;;;5032843;28;20041;-69
2021/08/14 00:32:27;;;;;;;27.80;10.32;;;;;;;;;;5032449;28;20222;-69
2021/08/14 00:34:54;;;;;;;40.30;9.57;;;;;;;;;;5029760;28;20137;-69
2021/08/14 00:37:20;;;;;;;32.03;10.93;;;;;;;;;;5036631;28;20041;-69
2021/08/14 00:39:47;;;;;;;30.42;10.38;;;;;;;;;;5047803;28;20407;-69
2021/08/14 00:42:13;;;;;;;31.42;10.85;;;;;;;;;;5042295;28;20052;-69
2021/08/14 00:44:39;;;;;;;26.00;10.57;;;;;;;;;;5038378;28;20111;-69
2021/08/14 00:47:06;;;;;;;32.35;10.95;;;;;;;;;;5037545;28;20045;-69
2021/08/14 00:49:32;;;;;;;32.10;10.50;;;;;;;;;;5036430;28;20045;-69
2021/08/14 00:51:59;;;;;;;25.40;9.35;;;;;;;;;;5040164;28;20138;-69
2021/08/14 00:54:25;;;;;;;39.13;11.23;;;;;;;;;;5042562;28;20029;-69
2021/08/14 00:56:52;;;;;;;33.28;10.88;;;;;;;;;;5040857;28;20091;-69
2021/08/14 00:59:18;;;;;;;36.88;10.75;;;;;;;;;;5041295;28;20373;-69
2021/08/14 01:01:44;;;;;;;41.60;11.85;;;;;;;;;;5035326;28;20045;-69
2021/08/14 01:04:11;;;;;;;32.47;10.40;;;;;;;;;;5040549;28;20596;-69
2021/08/14 01:06:38;;;;;;;35.30;10.93;;;;;;;;;;5038431;28;20497;-69
2021/08/14 01:09:05;;;;;;;32.60;9.93;;;;;;;;;;5039009;28;20496;-69
2021/08/14 01:11:31;;;;;;;30.13;11.00;;;;;;;;;;5038971;28;20057;-69
2021/08/14 01:13:58;;;;;;;33.92;10.65;;;;;;;;;;5037917;28;20037;-69
2021/08/14 01:16:26;;;;;;;34.80;10.40;;;;;;;;;;5038993;28;20144;-70
2021/08/14 01:18:52;;;;;;;42.38;12.55;;;;;;;;;;5038901;28;20516;-69
2021/08/14 01:21:20;;;;;;;34.42;12.32;;;;;;;;;;5054987;28;20121;-69
2021/08/14 01:23:48;;;;;;;41.55;12.88;;;;;;;;;;5039301;28;20326;-68
2021/08/14 01:26:14;;;;;;;44.63;13.05;;;;;;;;;;5039583;28;20049;-69
2021/08/14 01:28:41;;;;;;;49.70;15.02;;;;;;;;;;5039194;28;20041;-69
2021/08/14 01:31:09;;;;;;;50.70;14.73;;;;;;;;;;5037474;28;20717;-69
2021/08/14 01:33:36;;;;;;;44.92;14.70;;;;;;;;;;5036928;28;20049;-69
2021/08/14 01:36:03;;;;;;;46.38;13.50;;;;;;;;;;5040391;28;20056;-69
2021/08/14 01:38:29;;;;;;;39.15;13.75;;;;;;;;;;5043987;28;20063;-69
2021/08/14 01:40:56;;;;;;;51.50;14.20;;;;;;;;;;5040556;28;20037;-69
2021/08/14 01:43:22;;;;;;;50.75;14.38;;;;;;;;;;5037718;28;20100;-69
2021/08/14 01:45:49;;;;;;;49.15;14.20;;;;;;;;;;5037217;28;20095;-68
2021/08/14 01:48:16;;;;;;;43.13;13.18;;;;;;;;;;5039926;28;20057;-69
2021/08/14 01:50:43;;;;;;;36.90;12.82;;;;;;;;;;5043123;28;20048;-69
2021/08/14 01:53:09;;;;;;;41.33;12.88;;;;;;;;;;5042772;28;20056;-69
2021/08/14 01:55:36;;;;;;;47.20;13.90;;;;;;;;;;5038167;28;20068;-69
2021/08/14 01:58:04;;;;;;;40.15;13.18;;;;;;;;;;5037527;28;20387;-69
2021/08/14 02:00:30;;;;;;;45.08;13.23;;;;;;;;;;5039456;28;20067;-69
2021/08/14 02:02:58;;;;;;;44.47;13.60;;;;;;;;;;5039817;28;20550;-69
2021/08/14 02:05:24;;;;;;;39.88;13.55;;;;;;;;;;5034444;28;20170;-69
2021/08/14 02:07:51;;;;;;;38.35;12.50;;;;;;;;;;5037869;28;20088;-69
2021/08/14 02:10:17;;;;;;;49.47;12.18;;;;;;;;;;5041824;28;20057;-69
2021/08/14 02:12:44;;;;;;;37.55;11.98;;;;;;;;;;5037903;28;20090;-69
2021/08/14 02:15:10;;;;;;;48.63;12.80;;;;;;;;;;5037018;28;20115;-69
2021/08/14 02:17:37;;;;;;;41.40;13.02;;;;;;;;;;5038828;28;20037;-69
2021/08/14 02:20:04;;;;;;;48.92;13.27;;;;;;;;;;5032769;28;20080;-69
2021/08/14 02:22:30;;;;;;;39.90;11.63;;;;;;;;;;5037502;28;20465;-69
2021/08/14 02:24:57;;;;;;;53.25;13.95;;;;;;;;;;5040458;28;20117;-69
2021/08/14 02:27:23;;;;;;;37.15;12.38;;;;;;;;;;5034181;28;20040;-69
2021/08/14 02:29:49;;;;;;;49.47;13.57;;;;;;;;;;5031440;28;20037;-69
2021/08/14 02:32:15;;;;;;;48.17;13.75;;;;;;;;;;5031009;28;20049;-69
2021/08/14 02:34:42;;;;;;;38.30;13.05;;;;;;;;;;5034326;28;20496;-69
2021/08/14 02:37:08;;;;;;;46.88;13.82;;;;;;;;;;5035792;28;20416;-69
2021/08/14 02:39:34;;;;;;;39.53;12.57;;;;;;;;;;5033826;28;20053;-69
2021/08/14 02:42:01;;;;;;;41.28;13.02;;;;;;;;;;5036589;28;20048;-69
2021/08/14 02:44:27;;;;;;;40.47;14.23;;;;;;;;;;5038307;28;20051;-69
2021/08/14 02:46:53;;;;;;;40.20;12.80;;;;;;;;;;5039858;28;20049;-69
2021/08/14 02:49:19;;;;;;;47.30;13.80;;;;;;;;;;5037977;28;21592;-69
2021/08/14 02:51:46;;;;;;;50.60;14.50;;;;;;;;;;5040205;28;20178;-69
2021/08/14 02:54:12;;;;;;;46.03;14.13;;;;;;;;;;5037428;28;20056;-69
2021/08/14 02:56:38;;;;;;;48.83;14.13;;;;;;;;;;5039729;28;20178;-69
2021/08/14 02:59:04;;;;;;;45.05;13.88;;;;;;;;;;5037635;28;20480;-69
2021/08/14 03:01:31;;;;;;;51.17;14.43;;;;;;;;;;5038879;28;20768;-69
2021/08/14 03:03:57;;;;;;;47.15;12.88;;;;;;;;;;5040719;28;20052;-69
2021/08/14 03:06:24;;;;;;;44.03;13.25;;;;;;;;;;5040150;28;20055;-69
2021/08/14 03:08:51;;;;;;;43.72;12.55;;;;;;;;;;5036355;28;20464;-69
2021/08/14 03:11:18;;;;;;;40.90;13.77;;;;;;;;;;5033989;28;20419;-68
2021/08/14 03:13:44;;;;;;;44.05;12.85;;;;;;;;;;5032647;28;20076;-69
2021/08/14 03:16:11;;;;;;;46.72;13.50;;;;;;;;;;5036233;28;20037;-69
2021/08/14 03:18:37;;;;;;;48.83;12.82;;;;;;;;;;5036160;28;20151;-69
2021/08/14 03:21:03;;;;;;;41.70;13.25;;;;;;;;;;5042583;28;20037;-69
2021/08/14 03:23:30;;;;;;;50.05;14.80;;;;;;;;;;5039909;28;20467;-69
2021/08/14 03:25:56;;;;;;;50.03;13.68;;;;;;;;;;5040464;28;20055;-69
2021/08/14 03:28:22;;;;;;;46.35;13.07;;;;;;;;;;5040045;28;20048;-69
2021/08/14 03:30:49;;;;;;;41.50;12.88;;;;;;;;;;5041871;28;20040;-69
2021/08/14 03:33:15;;;;;;;44.63;13.10;;;;;;;;;;5042929;28;20041;-69
2021/08/14 03:35:41;;;;;;;49.97;12.82;;;;;;;;;;5039321;28;20045;-69
2021/08/14 03:38:07;;;;;;;40.15;12.40;;;;;;;;;;5039446;28;20421;-69
2021/08/14 03:40:34;;;;;;;47.92;13.45;;;;;;;;;;5035096;28;20144;-69
2021/08/14 03:43:00;;;;;;;44.53;13.43;;;;;;;;;;5034595;28;20043;-69
2021/08/14 03:45:26;;;;;;;40.40;12.18;;;;;;;;;;5035736;28;20098;-69
2021/08/14 03:47:52;;;;;;;35.08;13.90;;;;;;;;;;5038296;28;20045;-69
2021/08/14 03:50:19;;;;;;;45.30;13.20;;;;;;;;;;5035520;28;20059;-69
2021/08/14 03:52:45;;;;;;;49.83;13.75;;;;;;;;;;5041926;28;20045;-69
2021/08/14 03:55:11;;;;;;;45.40;14.73;;;;;;;;;;5030750;28;20177;-69
2021/08/14 03:57:37;;;;;;;55.90;14.02;;;;;;;;;;5037903;28;20096;-69
2021/08/14 04:00:04;;;;;;;53.13;14.48;;;;;;;;;;5035992;28;20052;-69
2021/08/14 04:02:35;;;;;;;49.53;13.88;;;;;;;;;;5039369;28;20046;-69
2021/08/14 04:05:01;;;;;;;52.03;13.63;;;;;;;;;;5038356;28;20064;-69
2021/08/14 04:07:28;;;;;;;46.78;13.20;;;;;;;;;;5031975;28;20045;-68
2021/08/14 04:09:54;;;;;;;51.47;13.70;;;;;;;;;;5038400;28;20128;-69
2021/08/14 04:12:21;;;;;;;55.38;14.45;;;;;;;;;;5041730;28;20056;-69
2021/08/14 04:14:47;;;;;;;45.22;13.57;;;;;;;;;;5040847;28;20195;-69
2021/08/14 04:17:14;;;;;;;39.63;12.07;;;;;;;;;;5043482;28;20046;-69
2021/08/14 04:19:40;;;;;;;44.85;13.20;;;;;;;;;;5032210;28;20132;-69
2021/08/14 04:22:06;;;;;;;50.85;15.30;;;;;;;;;;5036447;28;22157;-69
2021/08/14 04:24:33;;;;;;;42.38;13.88;;;;;;;;;;5034597;28;20048;-69
2021/08/14 04:26:59;;;;;;;53.42;12.80;;;;;;;;;;5027893;28;20869;-69
2021/08/14 04:29:27;;;;;;;44.80;13.68;;;;;;;;;;5036853;28;20048;-69
2021/08/14 04:31:53;;;;;;;50.00;13.90;;;;;;;;;;5044713;28;20044;-69
2021/08/14 04:34:19;;;;;;;37.13;12.98;;;;;;;;;;5047190;28;20135;-69
2021/08/14 04:36:46;;;;;;;40.20;13.27;;;;;;;;;;5045999;28;20038;-69
2021/08/14 04:39:12;;;;;;;45.42;13.93;;;;;;;;;;5040063;28;20061;-69
2021/08/14 04:41:39;;;;;;;52.13;15.50;;;;;;;;;;5040546;28;20048;-69
2021/08/14 04:44:05;;;;;;;52.15;13.75;;;;;;;;;;5037923;28;20082;-69
2021/08/14 04:46:31;;;;;;;53.67;14.68;;;;;;;;;;5041100;28;20417;-69
2021/08/14 04:48:58;;;;;;;50.88;14.77;;;;;;;;;;5046759;28;20323;-69
2021/08/14 04:51:25;;;;;;;47.03;12.25;;;;;;;;;;5042427;28;20067;-69
2021/08/14 04:53:51;;;;;;;52.60;12.70;;;;;;;;;;5041714;28;20045;-69
2021/08/14 04:56:18;;;;;;;48.33;13.25;;;;;;;;;;5040870;28;20330;-69
2021/08/14 04:58:44;;;;;;;41.22;12.32;;;;;;;;;;5041553;28;20075;-68
2021/08/14 05:01:10;;;;;;;39.38;12.20;;;;;;;;;;5036687;28;20064;-69
2021/08/14 05:03:37;;;;;;;48.15;12.85;;;;;;;;;;5043960;28;20041;-69
2021/08/14 05:06:03;;;;;;;58.50;14.07;;;;;;;;;;5039157;28;20041;-69
2021/08/14 05:08:29;;;;;;;56.30;13.60;;;;;;;;;;5040862;28;20402;-69
2021/08/14 05:10:56;;;;;;;54.85;14.13;;;;;;;;;;5045711;28;20029;-69
2021/08/14 05:13:22;;;;;;;47.25;13.65;;;;;;;;;;5041968;28;21476;-69
2021/08/14 05:15:49;;;;;;;44.97;14.30;;;;;;;;;;5045130;28;20103;-69
2021/08/14 05:18:16;;;;;;;45.33;13.55;;;;;;;;;;5049182;28;20408;-69
2021/08/14 05:20:43;;;;;;;38.22;12.93;;;;;;;;;;5045564;28;20563;-69
2021/08/14 05:23:09;;;;;;;45.50;12.68;;;;;;;;;;5044617;28;20091;-69
2021/08/14 05:25:35;;;;;;;54.25;14.25;;;;;;;;;;5047088;28;20045;-69
2021/08/14 05:28:02;;;;;;;56.65;14.60;;;;;;;;;;5047609;28;20045;-69
2021/08/14 05:30:28;;;;;;;55.55;14.13;;;;;;;;;;5041520;28;20427;-70
2021/08/14 05:32:54;;;;;;;53.25;14.18;;;;;;;;;;5039586;28;20117;-70
2021/08/14 05:35:21;;;;;;;48.90;13.88;;;;;;;;;;5040903;28;20093;-70
2021/08/14 05:37:47;;;;;;;46.67;13.57;;;;;;;;;;5033549;28;20052;-69
2021/08/14 05:40:14;;;;;;;47.35;12.60;;;;;;;;;;5042634;28;20041;-70
2021/08/14 05:42:40;;;;;;;42.17;12.35;;;;;;;;;;5039618;28;20057;-70
2021/08/14 05:45:07;;;;;;;48.85;13.40;;;;;;;;;;5038466;28;20128;-70
2021/08/14 05:47:33;;;;;;;43.05;11.90;;;;;;;;;;5054139;28;20049;-70
2021/08/14 05:50:03;;;;;;;45.65;13.55;;;;;;;;;;5036036;28;20052;-70
2021/08/14 05:52:30;;;;;;;47.10;12.93;;;;;;;;;;5040108;28;20433;-70
2021/08/14 05:54:56;;;;;;;44.88;12.32;;;;;;;;;;5037692;28;20150;-70
2021/08/14 05:57:22;;;;;;;45.55;13.27;;;;;;;;;;5035424;28;20049;-70
2021/08/14 05:59:49;;;;;;;45.65;13.65;;;;;;;;;;5043191;28;21922;-70
2021/08/14 06:02:15;;;;;;;52.55;13.13;;;;;;;;;;5036991;28;20067;-70
2021/08/14 06:04:42;;;;;;;48.95;13.73;;;;;;;;;;5040953;28;20469;-70
2021/08/14 06:07:08;;;;;;;47.17;13.05;;;;;;;;;;5044395;28;20068;-70
2021/08/14 06:09:35;;;;;;;55.10;14.95;;;;;;;;;;5037720;28;20365;-70
2021/08/14 06:12:02;;;;;;;48.72;12.82;;;;;;;;;;5036114;28;20033;-70
2021/08/14 06:14:28;;;;;;;58.72;14.13;;;;;;;;;;5045037;28;20036;-70
2021/08/14 06:16:54;;;;;;;63.80;14.00;;;;;;;;;;5046400;28;20507;-70
2021/08/14 06:19:21;;;;;;;51.42;14.88;;;;;;;;;;5038326;28;20043;-70
2021/08/14 06:21:47;;;;;;;45.72;14.13;;;;;;;;;;5040115;28;20040;-70
2021/08/14 06:24:13;;;;;;;44.95;13.40;;;;;;;;;;5042129;28;20037;-70
2021/08/14 06:26:40;;;;;;;51.00;13.07;;;;;;;;;;5036733;28;20037;-70
2021/08/14 06:29:06;;;;;;;54.67;13.13;;;;;;;;;;5033444;28;20044;-70
2021/08/14 06:31:38;;;;;;;52.60;13.75;;;;;;;;;;5028914;28;20140;-70
2021/08/14 06:34:04;;;;;;;39.95;12.43;;;;;;;;;;5028591;28;20049;-70
2021/08/14 06:36:31;;;;;;;50.67;12.43;;;;;;;;;;5030979;28;20373;-70
2021/08/14 06:38:57;;;;;;;48.25;13.80;;;;;;;;;;5025489;28;20056;-70
2021/08/14 06:41:24;;;;;;;45.90;12.07;;;;;;;;;;5048364;28;20049;-70
2021/08/14 06:43:50;;;;;;;41.22;10.60;;;;;;;;;;5033568;28;20049;-70
2021/08/14 06:46:16;;;;;;;51.50;12.45;;;;;;;;;;5038819;28;20118;-70
2021/08/14 06:48:43;;;;;;;39.17;12.65;;;;;;;;;;5046474;28;20076;-70
2021/08/14 06:51:11;;;;;;;46.95;11.88;;;;;;;;;;5045294;28;20037;-71
2021/08/14 06:53:38;;;;;;;37.95;10.52;;;;;;;;;;5041447;28;20041;-70
2021/08/14 06:56:04;;;;;;;39.40;11.35;;;;;;;;;;5046868;28;20041;-70
2021/08/14 06:58:30;;;;;;;39.33;11.35;;;;;;;;;;5046489;28;20047;-70
2021/08/14 07:00:57;;;;;;;33.40;9.85;;;;;;;;;;5043370;28;20060;-70
2021/08/14 07:03:23;;;;;;;33.47;9.60;;;;;;;;;;5039626;28;20048;-70
2021/08/14 07:05:49;;;;;;;32.90;9.00;;;;;;;;;;5040969;28;20047;-71
2021/08/14 07:08:15;;;;;;;44.40;10.48;;;;;;;;;;5042339;28;20064;-70
2021/08/14 07:10:42;;;;;;;35.33;8.73;;;;;;;;;;5041822;28;20052;-70
2021/08/14 07:13:09;;;;;;;37.45;9.25;;;;;;;;;;5043066;28;20176;-71
2021/08/14 07:15:35;;;;;;;27.42;8.30;;;;;;;;;;5044874;28;20098;-71
2021/08/14 07:18:01;;;;;;;37.00;8.98;;;;;;;;;;5046163;28;20041;-70
2021/08/14 07:20:28;;;;;;;28.95;8.82;;;;;;;;;;5045396;28;20485;-70
2021/08/14 07:22:54;;;;;;;39.05;10.07;;;;;;;;;;5045561;28;20044;-71
2021/08/14 07:25:20;;;;;;;31.23;8.15;;;;;;;;;;5046282;28;20037;-70
2021/08/14 07:27:47;;;;;;;28.25;8.20;;;;;;;;;;5042219;28;20212;-70
2021/08/14 07:30:13;;;;;;;36.95;9.05;;;;;;;;;;5046590;28;20081;-71
2021/08/14 07:32:40;;;;;;;26.00;7.13;;;;;;;;;;5046463;28;20484;-70
2021/08/14 07:35:06;;;;;;;25.25;7.90;;;;;;;;;;5046351;28;20076;-70
2021/08/14 07:37:32;;;;;;;30.20;7.95;;;;;;;;;;5045898;28;20053;-70
2021/08/14 07:39:59;;;;;;;29.48;8.10;;;;;;;;;;5046098;28;20041;-70
2021/08/14 07:42:25;;;;;;;25.02;7.50;;;;;;;;;;5045908;28;20056;-70
2021/08/14 07:44:51;;;;;;;25.02;6.53;;;;;;;;;;5047369;28;20045;-70
2021/08/14 07:47:19;;;;;;;29.70;7.93;;;;;;;;;;5050234;28;20064;-70
2021/08/14 07:49:46;;;;;;;24.58;7.75;;;;;;;;;;5049691;28;20041;-70
2021/08/14 07:52:12;;;;;;;23.17;6.50;;;;;;;;;;5049446;28;20059;-70
2021/08/14 07:54:38;;;;;;;22.63;7.10;;;;;;;;;;5050878;28;20045;-70
2021/08/14 07:57:05;;;;;;;27.95;7.35;;;;;;;;;;5070808;28;20049;-70
2021/08/14 07:59:31;;;;;;;22.58;7.05;;;;;;;;;;5051025;28;20052;-70
2021/08/14 08:01:57;;;;;;;26.00;7.28;;;;;;;;;;5049595;28;20052;-70
2021/08/14 08:04:23;;;;;;;30.25;7.43;;;;;;;;;;5048995;28;20506;-70
2021/08/14 08:06:50;;;;;;;24.08;7.28;;;;;;;;;;5050584;28;20049;-70
2021/08/14 08:09:16;;;;;;;24.35;7.35;;;;;;;;;;5049672;28;20071;-70
2021/08/14 08:11:42;;;;;;;25.35;7.35;;;;;;;;;;5048904;28;20041;-70
2021/08/14 08:14:09;;;;;;;24.80;7.35;;;;;;;;;;5049727;28;20068;-70
2021/08/14 08:16:35;;;;;;;19.58;6.20;;;;;;;;;;5050009;28;20044;-70
2021/08/14 08:19:02;;;;;;;27.42;6.65;;;;;;;;;;5049343;28;20045;-70
2021/08/14 08:21:28;;;;;;;25.33;7.50;;;;;;;;;;5049496;28;20037;-70
2021/08/14 08:23:54;;;;;;;23.83;6.72;;;;;;;;;;5049425;28;20053;-70
2021/08/14 08:26:20;;;;;;;25.02;7.35;;;;;;;;;;5049471;28;20489;-70
2021/08/14 08:28:47;;;;;;;27.73;7.32;;;;;;;;;;5048431;28;20057;-70
2021/08/14 08:31:13;;;;;;;25.00;7.18;;;;;;;;;;5047259;28;20056;-70
2021/08/14 08:33:39;;;;;;;21.65;6.18;;;;;;;;;;5048936;28;20049;-70
2021/08/14 08:36:06;;;;;;;18.45;6.47;;;;;;;;;;5045489;28;20374;-70
2021/08/14 08:38:32;;;;;;;22.38;6.57;;;;;;;;;;5048786;28;20049;-70
2021/08/14 08:40:58;;;;;;;21.60;6.03;;;;;;;;;;5048945;28;20053;-70
2021/08/14 08:43:25;;;;;;;23.88;6.57;;;;;;;;;;5049218;28;20148;-70
2021/08/14 08:45:51;;;;;;;22.58;6.43;;;;;;;;;;5048704;28;20045;-70
2021/08/14 08:48:19;;;;;;;22.10;6.93;;;;;;;;;;5048498;28;20435;-70
2021/08/14 08:50:47;;;;;;;25.52;6.75;;;;;;;;;;5050065;28;20124;-70
2021/08/14 08:53:13;;;;;;;26.30;7.25;;;;;;;;;;5048014;28;20442;-70
2021/08/14 08:55:40;;;;;;;23.40;6.93;;;;;;;;;;5048225;28;20052;-70
2021/08/14 08:58:06;;;;;;;26.38;7.72;;;;;;;;;;5047112;28;20036;-70
2021/08/14 09:00:33;;;;;;;25.55;8.48;;;;;;;;;;5047608;28;20057;-70
2021/08/14 09:03:07;;;;;;;25.60;7.55;;;;;;;;;;5048304;28;20061;-70
2021/08/14 09:05:34;;;;;;;19.20;6.18;;;;;;;;;;5047214;28;20045;-70
2021/08/14 09:08:09;;;;;;;23.00;6.53;;;;;;;;;;5048208;28;20396;-70
2021/08/14 09:10:35;;;;;;;26.45;6.70;;;;;;;;;;5048461;28;20045;-70
2021/08/14 09:13:09;;;;;;;25.05;6.28;;;;;;;;;;5049489;28;20057;-70
2021/08/14 09:15:36;;;;;;;31.15;6.60;;;;;;;;;;5068421;28;20492;-71
2021/08/14 09:18:04;;;;;;;21.40;5.95;;;;;;;;;;5047650;28;20120;-70
2021/08/14 09:20:31;;;;;;;19.88;5.75;;;;;;;;;;5048132;28;20045;-71
2021/08/14 09:23:01;;;;;;;16.48;4.35;;;;;;;;;;5048704;28;20127;-71
2021/08/14 09:25:37;;;;;;;20.15;5.82;;;;;;;;;;5048100;28;20045;-70
2021/08/14 09:28:04;;;;;;;28.63;7.43;;;;;;;;;;5047024;28;20162;-71
2021/08/14 09:30:44;;;;;;;16.85;4.28;;;;;;;;;;5045518;28;20041;-70
2021/08/14 09:33:13;;;;;;;36.83;6.72;;;;;;;;;;5045602;28;20488;-70
2021/08/14 09:35:39;;;;;;;21.80;5.55;;;;;;;;;;5045651;28;20040;-70
2021/08/14 09:38:07;;;;;;;15.48;4.05;;;;;;;;;;5047623;28;20123;-70
2021/08/14 09:40:34;;;;;;;13.70;4.60;;;;;;;;;;5048005;28;20056;-70
2021/08/14 09:43:01;;;;;;;12.15;4.22;;;;;;;;;;5046855;28;20118;-71
2021/08/14 09:45:29;;;;;;;18.20;4.85;;;;;;;;;;5047632;28;20495;-70
2021/08/14 09:47:55;;;;;;;21.75;6.28;;;;;;;;;;5047748;28;20033;-71
2021/08/14 09:50:34;;;;;;;18.88;5.50;;;;;;;;;;5045496;28;20112;-71
2021/08/14 09:53:11;;;;;;;16.30;4.93;;;;;;;;;;5047906;28;20052;-71
2021/08/14 09:55:38;;;;;;;17.92;5.40;;;;;;;;;;5045543;28;20127;-71
2021/08/14 09:58:09;;;;;;;17.98;5.00;;;;;;;;;;5047859;28;20049;-72
2021/08/14 10:00:35;;;;;;;12.25;4.47;;;;;;;;;;5047437;28;20044;-71
2021/08/14 10:03:03;;;;;;;16.73;4.82;;;;;;;;;;5046682;28;20067;-72
2021/08/14 10:05:31;;;;;;;20.73;6.18;;;;;;;;;;5047117;28;20041;-72
2021/08/14 10:07:59;;;;;;;16.40;4.93;;;;;;;;;;5046327;28;20092;-71
2021/08/14 10:10:25;;;;;;;13.18;5.00;;;;;;;;;;5045202;28;20405;-71
2021/08/14 10:12:52;;;;;;;17.58;5.05;;;;;;;;;;5048042;28;20105;-71
2021/08/14 10:15:19;;;;;;;13.88;3.78;;;;;;;;;;5046604;28;20469;-69
2021/08/14 10:17:46;;;;;;;16.15;4.32;;;;;;;;;;5046111;28;20547;-69
2021/08/14 10:20:12;;;;;;;14.68;4.32;;;;;;;;;;5046920;28;20033;-69
2021/08/14 10:22:38;;;;;;;17.23;4.57;;;;;;;;;;5046395;28;20496;-70
2021/08/14 10:25:05;;;;;;;15.75;4.22;;;;;;;;;;5043559;28;20045;-70
2021/08/14 10:27:54;;;;;;;25.65;5.32;;;;;;;;;;5046965;28;20129;-70
2021/08/14 10:30:37;;;;;;;50.78;9.70;;;;;;;;;;5047356;28;20087;-70
2021/08/14 10:33:03;;;;;;;9.32;2.97;;;;;;;;;;5044456;28;20481;-69
2021/08/14 10:35:31;;;;;;;13.20;3.75;;;;;;;;;;5044890;28;20124;-70
2021/08/14 10:37:57;;;;;;;11.02;3.50;;;;;;;;;;5045071;28;20045;-70
2021/08/14 10:40:23;;;;;;;10.85;3.20;;;;;;;;;;5047190;28;20128;-69
2021/08/14 10:42:52;;;;;;;9.70;3.28;;;;;;;;;;5046717;28;20131;-69
2021/08/14 10:45:20;;;;;;;7.28;2.28;;;;;;;;;;5044708;28;20041;-69
2021/08/14 10:47:46;;;;;;;10.25;2.75;;;;;;;;;;5047189;28;20045;-69
2021/08/14 10:50:31;;;;;;;8.35;2.65;;;;;;;;;;5046015;28;20501;-69
2021/08/14 10:53:11;;;;;;;12.73;3.20;;;;;;;;;;5046597;28;20041;-70
2021/08/14 10:55:44;;;;;;;11.05;2.70;;;;;;;;;;5045167;28;20045;-69
2021/08/14 10:58:17;;;;;;;12.52;2.75;;;;;;;;;;5044209;28;20045;-69
2021/08/14 11:00:44;;;;;;;13.25;4.25;;;;;;;;;;5044318;28;20052;-69
2021/08/14 11:03:11;;;;;;;10.00;3.20;;;;;;;;;;5044537;28;20048;-70
2021/08/14 11:05:39;;;;;;;10.65;2.58;;;;;;;;;;5047218;28;20045;-69
2021/08/14 11:08:23;;;;;;;9.70;3.33;;;;;;;;;;5045383;28;20037;-70
2021/08/14 11:10:49;;;;;;;13.00;3.50;;;;;;;;;;5045778;28;20049;-71
2021/08/14 11:13:42;;;;;;;10.23;2.85;;;;;;;;;;5045920;28;20037;-69
2021/08/14 11:16:09;;;;;;;8.73;2.85;;;;;;;;;;5045455;28;20049;-70
2021/08/14 11:18:49;;;;;;;9.43;2.72;;;;;;;;;;5044260;28;20049;-70
2021/08/14 11:21:15;;;;;;;14.65;3.70;;;;;;;;;;5044248;28;20047;-70
2021/08/14 11:23:58;;;;;;;6.85;3.05;;;;;;;;;;5047384;28;20048;-70
2021/08/14 11:26:35;;;;;;;8.70;2.78;;;;;;;;;;5045295;28;20071;-70
2021/08/14 11:29:02;;;;;;;63.17;7.50;;;;;;;;;;5044197;28;20115;-70
2021/08/14 11:31:29;;;;;;;8.43;2.90;;;;;;;;;;5068655;28;20094;-69
2021/08/14 11:34:01;;;;;;;8.32;3.00;;;;;;;;;;5044581;28;20045;-70
2021/08/14 11:36:29;;;;;;;8.30;2.35;;;;;;;;;;5043716;28;20041;-70
2021/08/14 11:39:01;;;;;;;9.88;3.17;;;;;;;;;;5043903;28;20081;-70
2021/08/14 11:41:27;;;;;;;7.13;2.78;;;;;;;;;;5043780;28;20052;-70
2021/08/14 11:43:59;;;;;;;10.88;4.53;;;;;;;;;;5045568;28;20029;-70
2021/08/14 11:46:26;;;;;;;7.72;2.58;;;;;;;;;;5047004;28;20049;-70
2021/08/14 11:48:52;;;;;;;10.27;2.97;;;;;;;;;;5045163;28;20064;-70
2021/08/14 11:51:20;;;;;;;10.18;2.38;;;;;;;;;;5045816;28;20481;-70
2021/08/14 11:53:46;;;;;;;8.80;2.95;;;;;;;;;;5046197;28;20098;-71
2021/08/14 11:56:14;;;;;;;12.25;2.63;;;;;;;;;;5045031;28;20448;-70
2021/08/14 11:58:41;;;;;;;10.02;2.28;;;;;;;;;;5044720;28;20049;-70
2021/08/14 12:01:09;;;;;;;7.97;3.17;;;;;;;;;;5045870;28;20487;-70
2021/08/14 12:03:35;;;;;;;9.95;2.80;;;;;;;;;;5043646;28;20044;-70
2021/08/14 12:06:07;;;;;;;9.55;3.67;;;;;;;;;;5046591;28;20060;-70
2021/08/14 12:08:35;;;;;;;9.75;3.03;;;;;;;;;;5045837;28;20440;-70
2021/08/14 12:11:03;;;;;;;9.25;3.25;;;;;;;;;;5044682;28;20404;-70
2021/08/14 12:13:30;;;;;;;12.98;3.30;;;;;;;;;;5044646;28;20520;-70
2021/08/14 12:16:13;;;;;;;10.70;3.15;;;;;;;;;;5044500;28;20138;-70
2021/08/14 12:18:42;;;;;;;11.80;3.15;;;;;;;;;;5045746;28;20057;-70
2021/08/14 12:21:08;;;;;;;7.65;2.90;;;;;;;;;;5044870;28;20128;-70
2021/08/14 12:23:36;;;;;;;9.85;3.42;;;;;;;;;;5044803;28;20049;-70
2021/08/14 12:26:06;;;;;;;8.80;3.38;;;;;;;;;;5045580;28;20055;-70
2021/08/14 12:28:33;;;;;;;15.05;4.03;;;;;;;;;;5045786;28;20354;-70
2021/08/14 12:31:00;;;;;;;9.07;3.35;;;;;;;;;;5047045;28;20045;-70
2021/08/14 12:33:28;;;;;;;11.18;3.30;;;;;;;;;;5049173;28;20040;-70
2021/08/14 12:35:56;;;;;;;9.65;2.80;;;;;;;;;;5048452;28;20045;-70
2021/08/14 12:38:22;;;;;;;11.00;3.55;;;;;;;;;;5048593;28;20044;-70
2021/08/14 12:40:48;;;;;;;9.27;2.95;;;;;;;;;;5048447;28;20044;-70
2021/08/14 12:43:16;;;;;;;8.52;2.53;;;;;;;;;;5048285;28;20048;-70
2021/08/14 12:45:42;;;;;;;9.75;3.45;;;;;;;;;;5048757;28;20087;-70
2021/08/14 12:48:09;;;;;;;7.03;3.00;;;;;;;;;;5046703;28;20044;-70
2021/08/14 12:50:36;;;;;;;6.55;2.50;;;;;;;;;;5048027;28;20080;-70
2021/08/14 12:53:05;;;;;;;9.75;3.03;;;;;;;;;;5047544;28;20073;-70
2021/08/14 12:55:34;;;;;;;8.95;3.38;;;;;;;;;;5048117;28;20346;-70
2021/08/14 12:58:01;;;;;;;10.98;2.88;;;;;;;;;;5048808;28;20041;-70
2021/08/14 13:00:28;;;;;;;6.93;2.80;;;;;;;;;;5048334;28;20037;-70
2021/08/14 13:02:54;;;;;;;7.72;2.63;;;;;;;;;;5047203;28;20065;-70
2021/08/14 13:05:20;;;;;;;9.20;3.28;;;;;;;;;;5048103;28;20053;-70
2021/08/14 13:07:47;;;;;;;11.43;3.38;;;;;;;;;;5048064;28;20142;-70
2021/08/14 13:10:13;;;;;;;9.13;2.70;;;;;;;;;;5048496;28;20118;-70
2021/08/14 13:12:47;;;;;;;9.13;3.33;;;;;;;;;;5047902;28;20041;-70
2021/08/14 13:15:13;;;;;;;11.98;3.47;;;;;;;;;;5048565;28;20148;-70
2021/08/14 13:17:39;;;;;;;9.10;3.03;;;;;;;;;;5046523;28;20091;-70
2021/08/14 13:20:07;;;;;;;12.35;2.95;;;;;;;;;;5049349;28;20065;-70
2021/08/14 13:22:33;;;;;;;5.95;2.35;;;;;;;;;;5048183;28;20372;-70
2021/08/14 13:24:59;;;;;;;12.57;3.47;;;;;;;;;;5048804;28;20115;-70
2021/08/14 13:27:26;;;;;;;12.55;3.53;;;;;;;;;;5047836;28;20045;-70
2021/08/14 13:29:52;;;;;;;10.18;3.00;;;;;;;;;;5047864;28;20168;-70
2021/08/14 13:32:18;;;;;;;9.80;3.35;;;;;;;;;;5048225;28;20045;-70
2021/08/14 13:34:46;;;;;;;11.90;3.08;;;;;;;;;;5047712;28;20421;-70
2021/08/14 13:37:13;;;;;;;12.20;2.63;;;;;;;;;;5048585;28;20111;-70
2021/08/14 13:39:40;;;;;;;10.45;3.05;;;;;;;;;;5048492;28;20471;-70
2021/08/14 13:42:07;;;;;;;8.50;3.03;;;;;;;;;;5045487;28;20067;-70
2021/08/14 13:44:33;;;;;;;7.10;2.85;;;;;;;;;;5045464;28;20044;-70
2021/08/14 13:46:59;;;;;;;13.05;3.45;;;;;;;;;;5049062;28;20481;-70
2021/08/14 13:49:26;;;;;;;7.50;2.50;;;;;;;;;;5047947;28;20436;-70
2021/08/14 13:51:52;;;;;;;9.73;2.70;;;;;;;;;;5044616;28;20047;-70
2021/08/14 13:54:19;;;;;;;7.70;2.45;;;;;;;;;;5049321;28;20112;-70
2021/08/14 13:56:45;;;;;;;8.88;2.75;;;;;;;;;;5047090;28;20052;-70
2021/08/14 13:59:11;;;;;;;8.32;2.63;;;;;;;;;;5048371;28;20065;-70
2021/08/14 14:01:37;;;;;;;9.18;2.88;;;;;;;;;;5045889;28;20079;-69
2021/08/14 14:04:04;;;;;;;11.32;2.70;;;;;;;;;;5047922;28;20057;-70
2021/08/14 14:06:30;;;;;;;12.15;3.10;;;;;;;;;;5048133;28;20167;-70
2021/08/14 14:08:57;;;;;;;11.45;2.72;;;;;;;;;;5046038;28;20047;-70
2021/08/14 14:11:23;;;;;;;7.85;2.65;;;;;;;;;;5048045;28;20080;-70
2021/08/14 14:13:51;;;;;;;10.45;2.40;;;;;;;;;;5045785;28;20202;-70
2021/08/14 14:16:18;;;;;;;9.48;3.05;;;;;;;;;;5045616;28;20549;-70
2021/08/14 14:18:44;;;;;;;11.60;3.33;;;;;;;;;;5045948;28;20049;-69
2021/08/14 14:21:11;;;;;;;12.20;3.50;;;;;;;;;;5044901;28;20042;-70
2021/08/14 14:23:37;;;;;;;9.93;3.55;;;;;;;;;;5046403;28;20138;-69
2021/08/14 14:26:03;;;;;;;11.18;4.13;;;;;;;;;;5046991;28;20068;-70